createdAt,value
2023-03-24T00:03:34.630Z,4.70
2023-03-24T00:08:41.509Z,4.70
2023-03-24T00:13:50.409Z,4.60
2023-03-24T00:18:56.583Z,4.40
2023-03-24T00:24:03.013Z,4.70
2023-03-24T00:29:13.869Z,4.80
2023-03-24T00:34:21.853Z,4.50
2023-03-24T00:39:27.621Z,4.20
2023-03-24T00:44:34.434Z,5.10
2023-03-24T00:49:44.827Z,5.50
2023-03-24T00:54:55.297Z,6.10
2023-03-24T01:00:14.658Z,5.70
2023-03-24T01:05:28.465Z,5.80
2023-03-24T01:10:36.320Z,6.00
2023-03-24T01:15:41.884Z,5.90
2023-03-24T01:20:51.528Z,5.90
2023-03-24T01:25:57.124Z,6.10
2023-03-24T01:31:02.913Z,6.30
2023-03-24T01:36:09.790Z,6.30
2023-03-24T01:41:15.625Z,6.70
2023-03-24T01:46:22.908Z,6.70
2023-03-24T01:51:35.414Z,6.30
2023-03-24T01:56:47.314Z,6.20
2023-03-24T02:02:04.986Z,6.10
2023-03-24T02:07:22.097Z,7.10
2023-03-24T02:12:27.746Z,6.70
2023-03-24T02:17:54.795Z,7.10
2023-03-24T02:23:24.535Z,7.70
2023-03-24T02:28:43.317Z,6.60
2023-03-24T02:34:19.207Z,7.20
2023-03-24T02:39:47.547Z,6.90
2023-03-24T02:45:04.923Z,8.60
2023-03-24T02:50:18.451Z,7.60
2023-03-24T02:55:31.545Z,7.00
2023-03-24T03:00:47.345Z,7.10
2023-03-24T03:06:23.601Z,9.00
2023-03-24T03:11:29.181Z,9.80
2023-03-24T03:16:39.378Z,8.90
2023-03-24T03:21:48.368Z,8.90
2023-03-24T03:27:00.365Z,7.90
2023-03-24T03:32:17.811Z,8.00
2023-03-24T03:37:30.608Z,9.30
2023-03-24T03:42:36.838Z,8.80
2023-03-24T03:47:43.195Z,9.00
2023-03-24T03:52:50.968Z,14.10
2023-03-24T03:57:56.733Z,13.50
2023-03-24T04:03:39.300Z,12.00
2023-03-24T04:08:50.965Z,13.30
2023-03-24T04:14:11.535Z,12.80
2023-03-24T04:19:40.776Z,11.60
2023-03-24T04:24:51.801Z,12.50
2023-03-24T04:30:16.519Z,12.60
2023-03-24T04:35:42.070Z,14.60
2023-03-24T04:40:58.790Z,13.30
2023-03-24T04:46:05.691Z,13.40
2023-03-24T04:51:33.110Z,12.50
2023-03-24T04:56:52.029Z,11.50
2023-03-24T05:02:03.001Z,12.90
2023-03-24T05:07:17.526Z,11.90
2023-03-24T05:12:24.984Z,11.90
2023-03-24T05:17:54.697Z,12.20
2023-03-24T05:23:02.910Z,12.20
2023-03-24T05:28:08.526Z,12.20
2023-03-24T05:33:14.360Z,11.30
2023-03-24T05:38:19.873Z,10.80
2023-03-24T05:43:27.881Z,9.10
2023-03-24T05:48:44.457Z,8.10
2023-03-24T05:53:52.698Z,8.60
2023-03-24T05:59:03.083Z,8.70
2023-03-24T06:04:36.024Z,14.10
2023-03-24T06:09:52.472Z,13.00
2023-03-24T06:14:59.054Z,11.00
2023-03-24T06:20:14.975Z,9.50
2023-03-24T06:25:28.582Z,9.50
2023-03-24T06:30:45.180Z,9.80
2023-03-24T06:35:52.533Z,9.40
2023-03-24T06:41:03.663Z,24.90
2023-03-24T06:46:10.986Z,12.30
2023-03-24T06:51:19.228Z,13.00
2023-03-24T06:56:25.326Z,13.80
2023-03-24T07:01:36.109Z,12.40
2023-03-24T07:07:19.708Z,12.30
2023-03-24T07:12:31.146Z,14.40
2023-03-24T07:17:36.988Z,11.00
2023-03-24T07:22:59.133Z,10.90
2023-03-24T07:28:05.207Z,11.10
2023-03-24T07:33:12.504Z,10.30
2023-03-24T07:38:19.556Z,11.30
2023-03-24T07:43:26.345Z,10.40
2023-03-24T07:48:47.707Z,8.70
2023-03-24T07:53:53.517Z,8.10
2023-03-24T07:59:14.623Z,8.10
2023-03-24T08:04:42.919Z,7.90
2023-03-24T08:09:57.825Z,7.20
2023-03-24T08:15:04.124Z,7.90
2023-03-24T08:20:15.160Z,6.90
2023-03-24T08:25:24.082Z,8.50
2023-03-24T08:30:30.488Z,9.50
2023-03-24T08:35:40.072Z,11.10
2023-03-24T08:40:45.940Z,9.50
2023-03-24T08:45:51.879Z,7.50
2023-03-24T08:50:57.909Z,8.70
2023-03-24T08:56:06.045Z,19.90
2023-03-24T09:01:12.493Z,8.40
2023-03-24T09:06:18.099Z,8.50
2023-03-24T09:11:24.691Z,8.40
2023-03-24T09:16:31.792Z,11.20
2023-03-24T09:21:38.507Z,11.10
2023-03-24T09:26:44.330Z,7.40
2023-03-24T09:31:51.962Z,35.50
2023-03-24T09:36:57.475Z,8.30
2023-03-24T09:42:06.027Z,9.90
2023-03-24T09:47:21.963Z,6.50
2023-03-24T09:52:33.913Z,6.10
2023-03-24T09:57:44.418Z,6.70
2023-03-24T10:02:52.157Z,13.50
2023-03-24T10:08:06.053Z,7.30
2023-03-24T10:13:21.340Z,6.80
2023-03-24T10:18:34.713Z,7.40
2023-03-24T10:23:48.537Z,7.70
2023-03-24T10:29:04.862Z,8.10
2023-03-24T10:34:13.252Z,8.20
2023-03-24T10:39:21.111Z,6.40
2023-03-24T10:44:31.704Z,7.40
2023-03-24T10:49:38.363Z,8.10
2023-03-24T10:54:56.461Z,6.70
2023-03-24T11:00:26.898Z,7.10
2023-03-24T11:05:35.408Z,8.60
2023-03-24T11:10:40.972Z,7.10
2023-03-24T11:16:04.374Z,6.90
2023-03-24T11:21:10.056Z,6.60
2023-03-24T11:26:18.198Z,7.30
2023-03-24T11:31:25.934Z,8.20
2023-03-24T11:36:46.847Z,8.40
2023-03-24T11:42:04.552Z,8.20
2023-03-24T11:47:13.085Z,7.10
2023-03-24T11:52:24.252Z,8.10
2023-03-24T11:57:47.542Z,10.60
2023-03-24T12:03:19.766Z,7.10
2023-03-24T12:08:36.918Z,6.70
2023-03-24T12:13:45.408Z,7.40
2023-03-24T12:19:08.615Z,7.20
2023-03-24T12:24:24.391Z,6.90
2023-03-24T12:29:48.414Z,6.90
2023-03-24T12:35:27.253Z,9.80
2023-03-24T12:40:59.875Z,16.70
2023-03-24T12:46:37.117Z,6.40
2023-03-24T12:52:07.398Z,5.30
2023-03-24T12:57:16.443Z,4.60
2023-03-24T13:02:30.526Z,4.30
2023-03-24T13:07:39.419Z,4.40
2023-03-24T13:12:51.356Z,3.80
2023-03-24T13:18:06.977Z,3.60
2023-03-24T13:23:32.294Z,3.60
2023-03-24T13:28:46.997Z,3.20
2023-03-24T13:33:54.687Z,3.00
2023-03-24T13:39:05.560Z,2.80
2023-03-24T13:44:22.666Z,2.60
2023-03-24T13:49:30.582Z,2.60
2023-03-24T13:54:38.973Z,2.60
2023-03-24T14:00:08.527Z,2.60
2023-03-24T14:05:32.109Z,2.80
2023-03-24T14:10:46.115Z,3.50
2023-03-24T14:15:53.588Z,2.90
2023-03-24T14:21:04.013Z,2.40
2023-03-24T14:26:12.745Z,3.40
2023-03-24T14:31:24.597Z,2.70
2023-03-24T14:36:33.079Z,2.10
2023-03-24T14:41:42.285Z,2.40
2023-03-24T14:46:50.337Z,2.20
2023-03-24T14:52:01.982Z,2.10
2023-03-24T14:57:08.959Z,2.30
2023-03-24T15:02:23.948Z,2.30
2023-03-24T15:07:29.460Z,2.40
2023-03-24T15:12:35.287Z,2.60
2023-03-24T15:17:44.401Z,2.50
2023-03-24T15:22:51.047Z,2.80
2023-03-24T15:28:00.466Z,2.90
2023-03-24T15:33:06.780Z,4.50
2023-03-24T15:38:29.206Z,2.40
2023-03-24T15:43:41.111Z,4.30
2023-03-24T15:48:48.327Z,3.50
2023-03-24T15:53:59.036Z,2.90
2023-03-24T15:59:15.581Z,2.20
2023-03-24T16:04:23.384Z,2.50
2023-03-24T16:09:38.942Z,3.10
2023-03-24T16:14:44.266Z,3.30
2023-03-24T16:19:50.198Z,3.40
2023-03-24T16:24:55.627Z,3.60
2023-03-24T16:30:01.963Z,3.80
2023-03-24T16:35:09.324Z,3.80
2023-03-24T16:40:25.713Z,4.20
2023-03-24T16:45:31.848Z,9.40
2023-03-24T16:50:40.911Z,6.70
2023-03-24T16:55:47.738Z,4.10
2023-03-24T17:00:55.069Z,3.90
2023-03-24T17:06:01.669Z,3.70
2023-03-24T17:11:11.270Z,4.00
2023-03-24T17:16:17.151Z,4.10
2023-03-24T17:21:23.810Z,5.10
2023-03-24T17:26:30.961Z,5.70
2023-03-24T17:31:37.667Z,6.00
2023-03-24T17:36:43.098Z,5.60
2023-03-24T17:41:48.504Z,6.10
2023-03-24T17:46:54.339Z,5.20
2023-03-24T17:51:59.812Z,6.40
2023-03-24T17:57:05.472Z,7.00
2023-03-24T18:02:13.800Z,7.40
2023-03-24T18:07:19.835Z,7.90
2023-03-24T18:12:26.171Z,6.20
2023-03-24T18:17:31.724Z,7.50
2023-03-24T18:22:40.769Z,8.90
2023-03-24T18:27:46.577Z,7.40
2023-03-24T18:32:52.199Z,8.70
2023-03-24T18:37:57.992Z,7.20
2023-03-24T18:43:03.489Z,6.70
2023-03-24T18:48:10.226Z,7.90
2023-03-24T18:53:16.129Z,7.40
2023-03-24T18:58:22.308Z,6.60
2023-03-24T19:03:29.012Z,6.80
2023-03-24T19:08:35.827Z,7.70
2023-03-24T19:13:41.566Z,7.50
2023-03-24T19:18:48.631Z,8.50
2023-03-24T19:23:54.469Z,6.70
2023-03-24T19:28:59.785Z,7.40
2023-03-24T19:34:05.261Z,6.80
2023-03-24T19:39:13.668Z,5.90
2023-03-24T19:44:19.252Z,6.00
2023-03-24T19:49:24.825Z,6.50
2023-03-24T19:54:30.666Z,5.80
2023-03-24T19:59:37.419Z,5.70
2023-03-24T20:04:43.329Z,7.00
2023-03-24T20:09:48.999Z,7.70
2023-03-24T20:14:54.903Z,7.50
2023-03-24T20:20:01.080Z,7.60
2023-03-24T20:25:08.812Z,8.50
2023-03-24T20:30:16.358Z,11.10
2023-03-24T20:35:22.628Z,7.30
2023-03-24T20:40:28.168Z,6.50
2023-03-24T20:45:33.674Z,6.70
2023-03-24T20:50:39.462Z,7.90
2023-03-24T20:55:49.055Z,7.20
2023-03-24T21:00:55.186Z,7.30
2023-03-24T21:06:01.468Z,6.90
2023-03-24T21:11:06.951Z,8.00
2023-03-24T21:16:13.769Z,8.50
2023-03-24T21:21:19.446Z,7.80
2023-03-24T21:26:25.812Z,8.30
2023-03-24T21:31:31.229Z,8.00
2023-03-24T21:36:38.597Z,6.60
2023-03-24T21:41:44.660Z,5.50
2023-03-24T21:46:50.078Z,5.10
2023-03-24T21:51:56.801Z,4.20
2023-03-24T21:57:04.082Z,4.00
2023-03-24T22:02:14.512Z,3.70
2023-03-24T22:07:22.535Z,3.30
2023-03-24T22:12:27.909Z,3.40
2023-03-24T22:17:33.396Z,3.80
2023-03-24T22:22:39.850Z,3.40
2023-03-24T22:27:46.225Z,3.50
2023-03-24T22:32:51.656Z,3.90
2023-03-24T22:37:57.209Z,4.00
2023-03-24T22:43:02.670Z,4.30
2023-03-24T22:48:08.439Z,3.90
2023-03-24T22:53:14.131Z,4.20
2023-03-24T22:58:19.578Z,4.60
2023-03-24T23:03:25.482Z,4.30
2023-03-24T23:08:32.649Z,3.90
2023-03-24T23:13:38.864Z,4.20
2023-03-24T23:18:44.618Z,4.10
2023-03-24T23:23:51.128Z,3.70
2023-03-24T23:28:57.219Z,4.20
2023-03-24T23:34:04.537Z,4.30
2023-03-24T23:39:10.646Z,4.00
2023-03-24T23:44:19.608Z,3.50
2023-03-24T23:49:25.567Z,3.80
2023-03-24T23:54:45.355Z,4.50
2023-03-24T23:59:53.153Z,4.20
